地図

経路データ

SID SEASON NUMBER BASIN SUBBASIN NAME ISO_TIME NATURE LAT LON WMO_WIND WMO_PRES WMO_AGENCY TRACK_TYPE DIST2LAND LANDFALL IFLAG USA_AGENCY USA_ATCF_ID USA_LAT USA_LON USA_RECORD USA_STATUS USA_WIND USA_PRES USA_SSHS USA_R34_NE USA_R34_SE USA_R34_SW USA_R34_NW USA_R50_NE USA_R50_SE USA_R50_SW USA_R50_NW USA_R64_NE USA_R64_SE USA_R64_SW USA_R64_NW USA_POCI USA_ROCI USA_RMW USA_EYE TOKYO_LAT TOKYO_LON TOKYO_GRADE TOKYO_WIND TOKYO_PRES TOKYO_R50_DIR TOKYO_R50_LONG TOKYO_R50_SHORT TOKYO_R30_DIR TOKYO_R30_LONG TOKYO_R30_SHORT TOKYO_LAND CMA_LAT CMA_LON CMA_CAT CMA_WIND CMA_PRES HKO_LAT HKO_LON HKO_CAT HKO_WIND HKO_PRES NEWDELHI_LAT NEWDELHI_LON NEWDELHI_GRADE NEWDELHI_WIND NEWDELHI_PRES NEWDELHI_CI NEWDELHI_DP NEWDELHI_POCI REUNION_LAT REUNION_LON REUNION_TYPE REUNION_WIND REUNION_PRES REUNION_TNUM REUNION_CI REUNION_RMW REUNION_R34_NE REUNION_R34_SE REUNION_R34_SW REUNION_R34_NW REUNION_R50_NE REUNION_R50_SE REUNION_R50_SW REUNION_R50_NW REUNION_R64_NE REUNION_R64_SE REUNION_R64_SW REUNION_R64_NW BOM_LAT BOM_LON BOM_TYPE BOM_WIND BOM_PRES BOM_TNUM BOM_CI BOM_RMW BOM_R34_NE BOM_R34_SE BOM_R34_SW BOM_R34_NW BOM_R50_NE BOM_R50_SE BOM_R50_SW BOM_R50_NW BOM_R64_NE BOM_R64_SE BOM_R64_SW BOM_R64_NW BOM_ROCI BOM_POCI BOM_EYE BOM_POS_METHOD BOM_PRES_METHOD NADI_LAT NADI_LON NADI_CAT NADI_WIND NADI_PRES WELLINGTON_LAT WELLINGTON_LON WELLINGTON_WIND WELLINGTON_PRES DS824_LAT DS824_LON DS824_STAGE DS824_WIND DS824_PRES TD9636_LAT TD9636_LON TD9636_STAGE TD9636_WIND TD9636_PRES TD9635_LAT TD9635_LON TD9635_WIND TD9635_PRES TD9635_ROCI NEUMANN_LAT NEUMANN_LON NEUMANN_CLASS NEUMANN_WIND NEUMANN_PRES MLC_LAT MLC_LON MLC_CLASS MLC_WIND MLC_PRES USA_GUST BOM_GUST BOM_GUST_PER REUNION_GUST REUNION_GUST_PER USA_SEAHGT USA_SEARAD_NE USA_SEARAD_SE USA_SEARAD_SW USA_SEARAD_NW STORM_SPEED STORM_DIR
1901001S25046 1901 3 SI MM NOT_NAMED 1901-01-01 06:00:00 NR -25.2000 45.9000 reunion main 0 0 _____O________ -1 -25.2000 45.9000 99 9.90000 1 98
1901001S25046 1901 3 SI MM NOT_NAMED 1901-01-01 09:00:00 NR -25.2055 45.9318 main 0 0 _____P________ -1 -25.2055 45.9318 99 1 104
1901001S25046 1901 3 SI MM NOT_NAMED 1901-01-01 12:00:00 NR -25.2164 45.9713 main 0 0 _____P________ -1 -25.2164 45.9713 99 1 110
1901001S25046 1901 3 SI MM NOT_NAMED 1901-01-01 15:00:00 NR -25.2383 46.0260 main 0 0 _____P________ -1 -25.2383 46.0260 99 1 117
1901001S25046 1901 3 SI MM NOT_NAMED 1901-01-01 18:00:00 NR -25.2765 46.1038 main 10 10 _____P________ -1 -25.2765 46.1038 99 2 120
1901001S25046 1901 3 SI MM NOT_NAMED 1901-01-01 21:00:00 NR -25.3364 46.2122 main 11 11 _____P________ -1 -25.3364 46.2122 99 3 122
1901001S25046 1901 3 SI MM NOT_NAMED 1901-01-02 00:00:00 NR -25.4234 46.3591 main 30 30 _____P________ -1 -25.4234 46.3591 99 4 124
1901001S25046 1901 3 SI MM NOT_NAMED 1901-01-02 03:00:00 NR -25.5428 46.5523 main 33 33 _____P________ -1 -25.5428 46.5523 99 5 125
1901001S25046 1901 3 SI MM NOT_NAMED 1901-01-02 06:00:00 NR -25.7000 46.8000 reunion main 55 55 _____O________ -1 -25.7000 46.8000 99 9.90000 6 125
1901001S25046 1901 3 SI MM NOT_NAMED 1901-01-02 09:00:00 NR -25.8974 47.1064 main 83 83 _____P________ -1 -25.8974 47.1064 99 7 126
1901001S25046 1901 3 SI MM NOT_NAMED 1901-01-02 12:00:00 NR -26.1270 47.4602 main 122 122 _____P________ -1 -26.1270 47.4602 99 8 126
1901001S25046 1901 3 SI MM NOT_NAMED 1901-01-02 15:00:00 NR -26.3782 47.8461 main 165 165 _____P________ -1 -26.3782 47.8461 99 9 126
1901001S25046 1901 3 SI MM NOT_NAMED 1901-01-02 18:00:00 NR -26.6407 48.2484 main 206 206 _____P________ -1 -26.6407 48.2484 99 9 126
1901001S25046 1901 3 SI MM NOT_NAMED 1901-01-02 21:00:00 NR -26.9042 48.6512 main 263 263 _____P________ -1 -26.9042 48.6512 99 9 126
1901001S25046 1901 3 SI MM NOT_NAMED 1901-01-03 00:00:00 NR -27.1584 49.0384 main 307 307 _____P________ -1 -27.1584 49.0384 99 8 127
1901001S25046 1901 3 SI MM NOT_NAMED 1901-01-03 03:00:00 NR -27.3936 49.3936 main 350 350 _____P________ -1 -27.3936 49.3936 99 7 127
1901001S25046 1901 3 SI MM NOT_NAMED 1901-01-03 06:00:00 NR -27.6000 49.7000 reunion main 387 387 _____O________ -1 -27.6000 49.7000 99 9.90000 6 128
1901001S25046 1901 3 SI MM NOT_NAMED 1901-01-03 09:00:00 NR -27.7704 49.9450 main 417 417 _____P________ -1 -27.7704 49.9450 99 5 129
1901001S25046 1901 3 SI MM NOT_NAMED 1901-01-03 12:00:00 NR -27.9074 50.1323 main 439 439 _____P________ -1 -27.9074 50.1323 99 4 130
1901001S25046 1901 3 SI MM NOT_NAMED 1901-01-03 15:00:00 NR -28.0159 50.2700 main 460 460 _____P________ -1 -28.0159 50.2700 99 3 133
1901001S25046 1901 3 SI MM NOT_NAMED 1901-01-03 18:00:00 NR -28.1009 50.3660 main 475 475 _____P________ -1 -28.1009 50.3660 99 2 136
1901001S25046 1901 3 SI MM NOT_NAMED 1901-01-03 21:00:00 NR -28.1671 50.4288 main 483 483 _____P________ -1 -28.1671 50.4288 99 1 143
1901001S25046 1901 3 SI MM NOT_NAMED 1901-01-04 00:00:00 NR -28.2192 50.4664 main 490 490 _____P________ -1 -28.2192 50.4664 99 1 148
1901001S25046 1901 3 SI MM NOT_NAMED 1901-01-04 03:00:00 NR -28.2619 50.4874 main 498 498 _____P________ -1 -28.2619 50.4874 99 1 156
1901001S25046 1901 3 SI MM NOT_NAMED 1901-01-04 06:00:00 NR -28.3000 50.5000 reunion main 498 _____O________ -1 -28.3000 50.5000 99 9.90000 1 164

IBTrACS Databaseについて

本データベースは、米国NOAAが公開する1842年以降の世界の熱帯低気圧のベストトラックデータアーカイブInternational Best Track Archive for Climate Stewardship (IBTrACS)を、ウェブで閲覧しやすい形式に変換したものです。

最終更新日:2021-10-08